Tulsa, Oklahoma
Current Conditions -  °F | °C
As of 8:53 PM on Saturday 20 Dec 2014 (Local Time) from KTUL Reporting Station
Drizzle Drizzle  
Wind Chill: 40°   Ceiling: 1900
Heat Index: 43°   Visibility: 9mi
Dew Point: 38°   Wind: 5mph
Humidity: 82%   Direction: 190°S
Pressure: 30.19"   Gusts: NA
Location:  36.15°N, 95.99°W
Report Text: KTUL 210253Z 19004KT 9SM -DZ FEW015 OVC019 06/03 A3019 RMK AO2 DZB34 SLP226 P0000 60000 T00610033 50003
Loading
Personal Weather Stations






























Interactive Weather Map New forecast layout! Learn more

10-Day Weather Forecast

Advertisements
Track Severe Weather on mobile